IBE14N LMML-DAAG
Flight info
| Callsign | IBE14N |
|---|---|
| Flight time | 1h 34m |
| Altitude | 34000 |
| Route | OBITA DCT NBA UL874 DIMAO DCT BJA DCT ZEM |
| Aircraft | A320/M-SDE3FGHIRWY/LB1 |
Departure
| Time | 2026-05-07 11:11 |
|---|---|
| Airport | Malta International Airport (LMML) |
Arrival
| Time | 2026-05-07 12:45 |
|---|---|
| Airport | Houari Boumediene Airport (DAAG) |
| Time | Latitude | Longitude | Altitude | Speed | Heading |
|---|---|---|---|---|---|
| 2026-05-07 11:04 | 35.84984 | 14.49278 | 255 ft | 0 kts | 131° |
| 2026-05-07 11:07 | 35.84980 | 14.49278 | 255 ft | 3 kts | 166° |
| 2026-05-07 11:07 | 35.84925 | 14.49181 | 255 ft | 23 kts | 244° |
| 2026-05-07 11:08 | 35.84958 | 14.49009 | 256 ft | 21 kts | 297° |
| 2026-05-07 11:08 | 35.85018 | 14.48791 | 258 ft | 34 kts | 286° |
| 2026-05-07 11:08 | 35.85123 | 14.48540 | 260 ft | 33 kts | 310° |
| 2026-05-07 11:08 | 35.85286 | 14.48335 | 261 ft | 34 kts | 315° |
| 2026-05-07 11:09 | 35.85464 | 14.48109 | 261 ft | 38 kts | 323° |
| 2026-05-07 11:09 | 35.85625 | 14.48038 | 263 ft | 19 kts | 19° |
| 2026-05-07 11:09 | 35.85661 | 14.48171 | 261 ft | 19 kts | 71° |
| 2026-05-07 11:09 | 35.85750 | 14.48188 | 260 ft | 24 kts | 353° |
| 2026-05-07 11:10 | 35.85947 | 14.48142 | 255 ft | 13 kts | 324° |
| 2026-05-07 11:10 | 35.85911 | 14.48023 | 259 ft | 38 kts | 234° |
| 2026-05-07 11:10 | 35.85612 | 14.47507 | 269 ft | 107 kts | 233° |
| 2026-05-07 11:10 | 35.85076 | 14.46577 | 360 ft | 152 kts | 233° |
| 2026-05-07 11:11 | 35.84468 | 14.45440 | 950 ft | 161 kts | 235° |
| 2026-05-07 11:11 | 35.83840 | 14.44337 | 1814 ft | 154 kts | 234° |
| 2026-05-07 11:11 | 35.83219 | 14.43265 | 2580 ft | 158 kts | 236° |
| 2026-05-07 11:11 | 35.82551 | 14.42112 | 3196 ft | 172 kts | 238° |
| 2026-05-07 11:12 | 35.81830 | 14.40862 | 3598 ft | 188 kts | 236° |
| 2026-05-07 11:12 | 35.81040 | 14.39493 | 4036 ft | 205 kts | 237° |
| 2026-05-07 11:12 | 35.80243 | 14.37961 | 4535 ft | 220 kts | 245° |
| 2026-05-07 11:12 | 35.79737 | 14.36116 | 5055 ft | 236 kts | 259° |
| 2026-05-07 11:13 | 35.79660 | 14.34042 | 5711 ft | 248 kts | 274° |
| 2026-05-07 11:13 | 35.79931 | 14.31934 | 6564 ft | 250 kts | 277° |
| 2026-05-07 11:13 | 35.80211 | 14.29804 | 7373 ft | 253 kts | 277° |
| 2026-05-07 11:13 | 35.80487 | 14.27647 | 8185 ft | 257 kts | 277° |
| 2026-05-07 11:14 | 35.80765 | 14.25486 | 8984 ft | 260 kts | 277° |
| 2026-05-07 11:14 | 35.81047 | 14.23266 | 9808 ft | 264 kts | 277° |
| 2026-05-07 11:14 | 35.81334 | 14.20979 | 10343 ft | 278 kts | 276° |
| 2026-05-07 11:14 | 35.81639 | 14.18556 | 10751 ft | 295 kts | 277° |
| 2026-05-07 11:15 | 35.81963 | 14.15996 | 11134 ft | 311 kts | 277° |
| 2026-05-07 11:15 | 35.82304 | 14.13288 | 11495 ft | 327 kts | 277° |
| 2026-05-07 11:15 | 35.82661 | 14.10479 | 12083 ft | 334 kts | 277° |
| 2026-05-07 11:15 | 35.83023 | 14.07637 | 12798 ft | 338 kts | 277° |
| 2026-05-07 11:16 | 35.83389 | 14.04759 | 13510 ft | 342 kts | 276° |
| 2026-05-07 11:16 | 35.83759 | 14.01854 | 14152 ft | 345 kts | 276° |
| 2026-05-07 11:16 | 35.84130 | 13.98927 | 14825 ft | 347 kts | 276° |
| 2026-05-07 11:16 | 35.84500 | 13.95987 | 15511 ft | 348 kts | 276° |
| 2026-05-07 11:17 | 35.84868 | 13.93037 | 16202 ft | 349 kts | 276° |
| 2026-05-07 11:17 | 35.85240 | 13.90073 | 16888 ft | 351 kts | 276° |
| 2026-05-07 11:17 | 35.85612 | 13.87096 | 17576 ft | 352 kts | 276° |
| 2026-05-07 11:17 | 35.85984 | 13.84104 | 18238 ft | 354 kts | 276° |
| 2026-05-07 11:18 | 35.86355 | 13.81101 | 18802 ft | 356 kts | 276° |
| 2026-05-07 11:18 | 35.86729 | 13.78065 | 19342 ft | 359 kts | 276° |
| 2026-05-07 11:18 | 35.86895 | 13.74990 | 19885 ft | 360 kts | 266° |
| 2026-05-07 11:18 | 35.86561 | 13.71926 | 20416 ft | 363 kts | 256° |
| 2026-05-07 11:19 | 35.85776 | 13.68956 | 20924 ft | 366 kts | 251° |
| 2026-05-07 11:19 | 35.84916 | 13.66031 | 21416 ft | 370 kts | 251° |
| 2026-05-07 11:19 | 35.84031 | 13.63038 | 21912 ft | 373 kts | 251° |
| 2026-05-07 11:19 | 35.83137 | 13.60025 | 22388 ft | 376 kts | 251° |
| 2026-05-07 11:20 | 35.82251 | 13.56978 | 22860 ft | 379 kts | 253° |
| 2026-05-07 11:20 | 35.81714 | 13.53791 | 23316 ft | 382 kts | 264° |
| 2026-05-07 11:20 | 35.81686 | 13.50513 | 23703 ft | 386 kts | 274° |
| 2026-05-07 11:20 | 35.82003 | 13.47220 | 24094 ft | 388 kts | 275° |
| 2026-05-07 11:21 | 35.82329 | 13.43915 | 24490 ft | 389 kts | 275° |
| 2026-05-07 11:21 | 35.82652 | 13.40594 | 24885 ft | 391 kts | 275° |
| 2026-05-07 11:21 | 35.82972 | 13.37271 | 25276 ft | 392 kts | 274° |
| 2026-05-07 11:21 | 35.83288 | 13.33935 | 25667 ft | 393 kts | 274° |
| 2026-05-07 11:22 | 35.83604 | 13.30589 | 26052 ft | 394 kts | 274° |
| 2026-05-07 11:22 | 35.83919 | 13.27229 | 26428 ft | 395 kts | 274° |
| 2026-05-07 11:22 | 35.84237 | 13.23867 | 26798 ft | 396 kts | 274° |
| 2026-05-07 11:22 | 35.84557 | 13.20493 | 27156 ft | 397 kts | 274° |
| 2026-05-07 11:23 | 35.84876 | 13.17117 | 27510 ft | 397 kts | 274° |
| 2026-05-07 11:23 | 35.85193 | 13.13724 | 27853 ft | 398 kts | 274° |
| 2026-05-07 11:23 | 35.85510 | 13.10333 | 28182 ft | 399 kts | 274° |
| 2026-05-07 11:23 | 35.85827 | 13.06929 | 28509 ft | 400 kts | 274° |
| 2026-05-07 11:24 | 35.86144 | 13.03521 | 28817 ft | 401 kts | 274° |
| 2026-05-07 11:24 | 35.86461 | 13.00106 | 29116 ft | 401 kts | 274° |
| 2026-05-07 11:24 | 35.86777 | 12.96686 | 29395 ft | 402 kts | 274° |
| 2026-05-07 11:24 | 35.87091 | 12.93259 | 29697 ft | 402 kts | 273° |
| 2026-05-07 11:25 | 35.87403 | 12.89852 | 30066 ft | 399 kts | 274° |
| 2026-05-07 11:25 | 35.87712 | 12.86463 | 30400 ft | 397 kts | 273° |
| 2026-05-07 11:25 | 35.88020 | 12.83088 | 30730 ft | 395 kts | 273° |
| 2026-05-07 11:25 | 35.88325 | 12.79728 | 31056 ft | 393 kts | 273° |
| 2026-05-07 11:26 | 35.88622 | 12.76436 | 31371 ft | 391 kts | 273° |
| 2026-05-07 11:26 | 35.88920 | 12.73107 | 31697 ft | 390 kts | 273° |
| 2026-05-07 11:26 | 35.89215 | 12.69794 | 32013 ft | 388 kts | 273° |
| 2026-05-07 11:26 | 35.89511 | 12.66493 | 32349 ft | 386 kts | 273° |
| 2026-05-07 11:27 | 35.89807 | 12.63212 | 32679 ft | 384 kts | 273° |
| 2026-05-07 11:27 | 35.90103 | 12.59942 | 33002 ft | 383 kts | 273° |
| 2026-05-07 11:27 | 35.90395 | 12.56688 | 33333 ft | 381 kts | 273° |
| 2026-05-07 11:27 | 35.90685 | 12.53445 | 33657 ft | 379 kts | 273° |
| 2026-05-07 11:28 | 35.90973 | 12.50214 | 33845 ft | 378 kts | 273° |
| 2026-05-07 11:28 | 35.91255 | 12.46996 | 33879 ft | 378 kts | 273° |
| 2026-05-07 11:28 | 35.91817 | 12.40551 | 33880 ft | 378 kts | 273° |
| 2026-05-07 11:29 | 35.92374 | 12.34100 | 33880 ft | 378 kts | 273° |
| 2026-05-07 11:29 | 35.92935 | 12.27646 | 33885 ft | 379 kts | 273° |
| 2026-05-07 11:30 | 35.93494 | 12.21178 | 33888 ft | 379 kts | 272° |
| 2026-05-07 11:30 | 35.94049 | 12.14704 | 33896 ft | 380 kts | 272° |
| 2026-05-07 11:31 | 35.94599 | 12.08225 | 33903 ft | 380 kts | 272° |
| 2026-05-07 11:31 | 35.95148 | 12.01736 | 33894 ft | 380 kts | 272° |
| 2026-05-07 11:32 | 35.95964 | 11.92004 | 33894 ft | 380 kts | 272° |
| 2026-05-07 11:33 | 35.96407 | 11.86600 | 33897 ft | 381 kts | 272° |
| 2026-05-07 11:33 | 35.96943 | 11.80095 | 33896 ft | 381 kts | 272° |
| 2026-05-07 11:34 | 35.97481 | 11.73580 | 33906 ft | 381 kts | 272° |
| 2026-05-07 11:34 | 35.98009 | 11.67065 | 33906 ft | 382 kts | 272° |
| 2026-05-07 11:35 | 35.98536 | 11.60533 | 33905 ft | 382 kts | 272° |
| 2026-05-07 11:35 | 35.99059 | 11.53993 | 33904 ft | 383 kts | 272° |
| 2026-05-07 11:36 | 35.99583 | 11.47450 | 33911 ft | 383 kts | 272° |
| 2026-05-07 11:36 | 36.00106 | 11.40889 | 33909 ft | 384 kts | 272° |
| 2026-05-07 11:37 | 36.00631 | 11.34321 | 33912 ft | 385 kts | 272° |
| 2026-05-07 11:37 | 36.01148 | 11.27732 | 33921 ft | 385 kts | 271° |
| 2026-05-07 11:38 | 36.01651 | 11.21199 | 33924 ft | 385 kts | 271° |
| 2026-05-07 11:38 | 36.02157 | 11.14624 | 33916 ft | 384 kts | 271° |
| 2026-05-07 11:39 | 36.02666 | 11.08060 | 33917 ft | 384 kts | 271° |
| 2026-05-07 11:39 | 36.03169 | 11.01492 | 33914 ft | 384 kts | 271° |
| 2026-05-07 11:40 | 36.03663 | 10.94917 | 33921 ft | 384 kts | 271° |
| 2026-05-07 11:40 | 36.04148 | 10.88352 | 33927 ft | 383 kts | 270° |
| 2026-05-07 11:41 | 36.04637 | 10.81794 | 33921 ft | 382 kts | 270° |
| 2026-05-07 11:41 | 36.05121 | 10.75262 | 33921 ft | 381 kts | 270° |
| 2026-05-07 11:42 | 36.05595 | 10.68744 | 33921 ft | 381 kts | 270° |
| 2026-05-07 11:42 | 36.06065 | 10.62243 | 33924 ft | 379 kts | 270° |
| 2026-05-07 11:43 | 36.06529 | 10.55767 | 33916 ft | 378 kts | 270° |
| 2026-05-07 11:43 | 36.06993 | 10.49310 | 33913 ft | 376 kts | 270° |
| 2026-05-07 11:44 | 36.07620 | 10.42878 | 33909 ft | 382 kts | 277° |
| 2026-05-07 11:44 | 36.09257 | 10.36570 | 33902 ft | 386 kts | 281° |
| 2026-05-07 11:45 | 36.10940 | 10.30275 | 33904 ft | 386 kts | 281° |
| 2026-05-07 11:45 | 36.12607 | 10.24014 | 33899 ft | 386 kts | 281° |
| 2026-05-07 11:46 | 36.14280 | 10.17699 | 33900 ft | 386 kts | 281° |
| 2026-05-07 11:46 | 36.15600 | 10.11323 | 33902 ft | 379 kts | 272° |
| 2026-05-07 11:47 | 36.16388 | 10.04868 | 33916 ft | 380 kts | 272° |
| 2026-05-07 11:47 | 36.17184 | 9.98401 | 33916 ft | 381 kts | 273° |
| 2026-05-07 11:48 | 36.17984 | 9.91913 | 33914 ft | 381 kts | 272° |
| 2026-05-07 11:48 | 36.18777 | 9.85417 | 33915 ft | 382 kts | 273° |
| 2026-05-07 11:49 | 36.19566 | 9.78898 | 33921 ft | 383 kts | 273° |
| 2026-05-07 11:49 | 36.20356 | 9.72365 | 33925 ft | 384 kts | 273° |
| 2026-05-07 11:50 | 36.21143 | 9.65816 | 33925 ft | 385 kts | 273° |
| 2026-05-07 11:50 | 36.21923 | 9.59264 | 33933 ft | 385 kts | 272° |
| 2026-05-07 11:51 | 36.22701 | 9.52704 | 33941 ft | 385 kts | 272° |
| 2026-05-07 11:51 | 36.23478 | 9.46138 | 33930 ft | 385 kts | 272° |
| 2026-05-07 11:52 | 36.24254 | 9.39573 | 33933 ft | 385 kts | 272° |
| 2026-05-07 11:52 | 36.25024 | 9.32989 | 33936 ft | 386 kts | 272° |
| 2026-05-07 11:53 | 36.25953 | 9.26421 | 33943 ft | 388 kts | 275° |
| 2026-05-07 11:53 | 36.27078 | 9.19921 | 33948 ft | 388 kts | 276° |
| 2026-05-07 11:54 | 36.28205 | 9.13384 | 33944 ft | 387 kts | 275° |
| 2026-05-07 11:54 | 36.29286 | 9.06858 | 33955 ft | 386 kts | 275° |
| 2026-05-07 11:55 | 36.30341 | 9.00348 | 33956 ft | 385 kts | 274° |
| 2026-05-07 11:55 | 36.31386 | 8.93854 | 33956 ft | 383 kts | 274° |
| 2026-05-07 11:56 | 36.32428 | 8.87375 | 33955 ft | 383 kts | 274° |
| 2026-05-07 11:56 | 36.33475 | 8.80907 | 33953 ft | 382 kts | 274° |
| 2026-05-07 11:57 | 36.34512 | 8.74460 | 33954 ft | 381 kts | 274° |
| 2026-05-07 11:57 | 36.35540 | 8.68009 | 33955 ft | 381 kts | 274° |
| 2026-05-07 11:58 | 36.36563 | 8.61567 | 33953 ft | 380 kts | 274° |
| 2026-05-07 11:58 | 36.37584 | 8.55129 | 33948 ft | 380 kts | 274° |
| 2026-05-07 11:59 | 36.38598 | 8.48698 | 33942 ft | 380 kts | 273° |
| 2026-05-07 11:59 | 36.39613 | 8.42252 | 33938 ft | 380 kts | 273° |
| 2026-05-07 12:00 | 36.40604 | 8.35867 | 33948 ft | 378 kts | 272° |
| 2026-05-07 12:00 | 36.41364 | 8.29436 | 33932 ft | 375 kts | 270° |
| 2026-05-07 12:01 | 36.41997 | 8.23013 | 33931 ft | 375 kts | 269° |
| 2026-05-07 12:01 | 36.42646 | 8.16590 | 33921 ft | 375 kts | 269° |
| 2026-05-07 12:02 | 36.43324 | 8.10182 | 33922 ft | 373 kts | 269° |
| 2026-05-07 12:02 | 36.44007 | 8.03787 | 33923 ft | 374 kts | 269° |
| 2026-05-07 12:03 | 36.44685 | 7.97369 | 33923 ft | 375 kts | 269° |
| 2026-05-07 12:03 | 36.45362 | 7.90942 | 33925 ft | 375 kts | 269° |
| 2026-05-07 12:04 | 36.46036 | 7.84506 | 33924 ft | 376 kts | 269° |
| 2026-05-07 12:04 | 36.46698 | 7.78053 | 33921 ft | 376 kts | 269° |
| 2026-05-07 12:05 | 36.47360 | 7.71599 | 33923 ft | 377 kts | 269° |
| 2026-05-07 12:05 | 36.48021 | 7.65139 | 33923 ft | 378 kts | 269° |
| 2026-05-07 12:06 | 36.48684 | 7.58659 | 33927 ft | 378 kts | 268° |
| 2026-05-07 12:06 | 36.49347 | 7.52177 | 33925 ft | 379 kts | 268° |
| 2026-05-07 12:07 | 36.49999 | 7.45721 | 33924 ft | 379 kts | 268° |
| 2026-05-07 12:07 | 36.50648 | 7.39211 | 33929 ft | 379 kts | 268° |
| 2026-05-07 12:08 | 36.51294 | 7.32694 | 33927 ft | 380 kts | 268° |
| 2026-05-07 12:08 | 36.51942 | 7.26168 | 33925 ft | 380 kts | 268° |
| 2026-05-07 12:09 | 36.52586 | 7.19632 | 33923 ft | 380 kts | 268° |
| 2026-05-07 12:09 | 36.53217 | 7.13105 | 33918 ft | 381 kts | 268° |
| 2026-05-07 12:10 | 36.53856 | 7.06568 | 33923 ft | 381 kts | 268° |
| 2026-05-07 12:10 | 36.54496 | 7.00036 | 33919 ft | 381 kts | 267° |
| 2026-05-07 12:11 | 36.55125 | 6.93498 | 33919 ft | 381 kts | 267° |
| 2026-05-07 12:11 | 36.55748 | 6.86954 | 33926 ft | 381 kts | 267° |
| 2026-05-07 12:12 | 36.56363 | 6.80459 | 33927 ft | 381 kts | 267° |
| 2026-05-07 12:12 | 36.56980 | 6.73918 | 33928 ft | 380 kts | 267° |
| 2026-05-07 12:13 | 36.57596 | 6.67394 | 33933 ft | 379 kts | 267° |
| 2026-05-07 12:13 | 36.58215 | 6.60868 | 33930 ft | 380 kts | 267° |
| 2026-05-07 12:14 | 36.58835 | 6.54345 | 33926 ft | 379 kts | 266° |
| 2026-05-07 12:14 | 36.59433 | 6.47861 | 33918 ft | 378 kts | 266° |
| 2026-05-07 12:15 | 36.60026 | 6.41351 | 33915 ft | 379 kts | 266° |
| 2026-05-07 12:15 | 36.60621 | 6.34830 | 33908 ft | 380 kts | 266° |
| 2026-05-07 12:16 | 36.61222 | 6.28305 | 33916 ft | 379 kts | 266° |
| 2026-05-07 12:16 | 36.61808 | 6.21784 | 33920 ft | 379 kts | 266° |
| 2026-05-07 12:17 | 36.62377 | 6.15260 | 33914 ft | 379 kts | 266° |
| 2026-05-07 12:17 | 36.62947 | 6.08716 | 33911 ft | 380 kts | 265° |
| 2026-05-07 12:18 | 36.63526 | 6.02183 | 33925 ft | 380 kts | 265° |
| 2026-05-07 12:18 | 36.64096 | 5.95747 | 33926 ft | 380 kts | 265° |
| 2026-05-07 12:19 | 36.64670 | 5.89148 | 33924 ft | 380 kts | 266° |
| 2026-05-07 12:19 | 36.65239 | 5.82639 | 33552 ft | 380 kts | 265° |
| 2026-05-07 12:19 | 36.65530 | 5.79305 | 33296 ft | 382 kts | 265° |
| 2026-05-07 12:20 | 36.65813 | 5.76013 | 33033 ft | 384 kts | 265° |
| 2026-05-07 12:20 | 36.66094 | 5.72702 | 32770 ft | 385 kts | 265° |
| 2026-05-07 12:20 | 36.66371 | 5.69368 | 32508 ft | 387 kts | 267° |
| 2026-05-07 12:20 | 36.66652 | 5.66040 | 32252 ft | 387 kts | 266° |
| 2026-05-07 12:21 | 36.66936 | 5.62688 | 31999 ft | 390 kts | 266° |
| 2026-05-07 12:21 | 36.67222 | 5.59320 | 31745 ft | 393 kts | 267° |
| 2026-05-07 12:21 | 36.67509 | 5.55943 | 31500 ft | 392 kts | 267° |
| 2026-05-07 12:21 | 36.67795 | 5.52567 | 31251 ft | 392 kts | 267° |
| 2026-05-07 12:22 | 36.68077 | 5.49187 | 31003 ft | 394 kts | 267° |
| 2026-05-07 12:22 | 36.68359 | 5.45782 | 30769 ft | 395 kts | 268° |
| 2026-05-07 12:22 | 36.68642 | 5.42364 | 30533 ft | 397 kts | 268° |
| 2026-05-07 12:22 | 36.68926 | 5.38942 | 30303 ft | 398 kts | 268° |
| 2026-05-07 12:23 | 36.69211 | 5.35502 | 30071 ft | 400 kts | 268° |
| 2026-05-07 12:23 | 36.69492 | 5.32092 | 29821 ft | 402 kts | 269° |
| 2026-05-07 12:23 | 36.69777 | 5.28624 | 29552 ft | 404 kts | 269° |
| 2026-05-07 12:23 | 36.70062 | 5.25131 | 29279 ft | 406 kts | 269° |
| 2026-05-07 12:24 | 36.70347 | 5.21632 | 29007 ft | 408 kts | 269° |
| 2026-05-07 12:24 | 36.70633 | 5.18109 | 28757 ft | 410 kts | 269° |
| 2026-05-07 12:24 | 36.70919 | 5.14565 | 28489 ft | 412 kts | 269° |
| 2026-05-07 12:24 | 36.71207 | 5.11016 | 28214 ft | 411 kts | 269° |
| 2026-05-07 12:25 | 36.71396 | 5.08670 | 28046 ft | 411 kts | 269° |
| 2026-05-07 12:25 | 36.71662 | 5.05125 | 27784 ft | 410 kts | 268° |
| 2026-05-07 12:25 | 36.71889 | 5.01584 | 27525 ft | 409 kts | 268° |
| 2026-05-07 12:25 | 36.72089 | 4.98042 | 27243 ft | 410 kts | 267° |
| 2026-05-07 12:26 | 36.72280 | 4.94503 | 26985 ft | 410 kts | 267° |
| 2026-05-07 12:26 | 36.72471 | 4.90960 | 26733 ft | 409 kts | 268° |
| 2026-05-07 12:26 | 36.72665 | 4.87426 | 26481 ft | 409 kts | 268° |
| 2026-05-07 12:26 | 36.72863 | 4.83895 | 26236 ft | 408 kts | 268° |
| 2026-05-07 12:27 | 36.73062 | 4.80370 | 25990 ft | 407 kts | 268° |
| 2026-05-07 12:27 | 36.73262 | 4.76870 | 25482 ft | 400 kts | 268° |
| 2026-05-07 12:27 | 36.73462 | 4.73453 | 24742 ft | 391 kts | 268° |
| 2026-05-07 12:27 | 36.73658 | 4.70120 | 24043 ft | 381 kts | 268° |
| 2026-05-07 12:28 | 36.73845 | 4.66849 | 23341 ft | 374 kts | 268° |
| 2026-05-07 12:28 | 36.74026 | 4.63637 | 22620 ft | 369 kts | 268° |
| 2026-05-07 12:28 | 36.74200 | 4.60463 | 22003 ft | 366 kts | 268° |
| 2026-05-07 12:28 | 36.74372 | 4.57310 | 21391 ft | 363 kts | 269° |
| 2026-05-07 12:29 | 36.74543 | 4.54178 | 20816 ft | 361 kts | 269° |
| 2026-05-07 12:29 | 36.74712 | 4.51066 | 20255 ft | 358 kts | 269° |
| 2026-05-07 12:29 | 36.74879 | 4.47973 | 19716 ft | 358 kts | 269° |
| 2026-05-07 12:29 | 36.75044 | 4.44936 | 19186 ft | 355 kts | 269° |
| 2026-05-07 12:30 | 36.75211 | 4.41862 | 18669 ft | 355 kts | 269° |
| 2026-05-07 12:30 | 36.75378 | 4.38813 | 18179 ft | 351 kts | 269° |
| 2026-05-07 12:30 | 36.75543 | 4.35786 | 17636 ft | 349 kts | 269° |
| 2026-05-07 12:30 | 36.75706 | 4.32766 | 17129 ft | 348 kts | 269° |
| 2026-05-07 12:31 | 36.75867 | 4.29757 | 16629 ft | 347 kts | 270° |
| 2026-05-07 12:31 | 36.76027 | 4.26757 | 16106 ft | 346 kts | 270° |
| 2026-05-07 12:31 | 36.76187 | 4.23771 | 15590 ft | 344 kts | 270° |
| 2026-05-07 12:31 | 36.76346 | 4.20799 | 15057 ft | 343 kts | 270° |
| 2026-05-07 12:32 | 36.76504 | 4.17840 | 14518 ft | 342 kts | 270° |
| 2026-05-07 12:32 | 36.76663 | 4.14888 | 13966 ft | 339 kts | 271° |
| 2026-05-07 12:32 | 36.76815 | 4.11964 | 13376 ft | 338 kts | 270° |
| 2026-05-07 12:32 | 36.76962 | 4.09047 | 12796 ft | 337 kts | 271° |
| 2026-05-07 12:33 | 36.77255 | 4.03238 | 11643 ft | 334 kts | 271° |
| 2026-05-07 12:33 | 36.77403 | 4.00353 | 11062 ft | 332 kts | 271° |
| 2026-05-07 12:33 | 36.77549 | 3.97488 | 10568 ft | 327 kts | 272° |
| 2026-05-07 12:34 | 36.77690 | 3.94744 | 10440 ft | 307 kts | 272° |
| 2026-05-07 12:34 | 36.77822 | 3.92142 | 10127 ft | 296 kts | 272° |
| 2026-05-07 12:34 | 36.77946 | 3.89612 | 9868 ft | 291 kts | 272° |
| 2026-05-07 12:34 | 36.78063 | 3.87125 | 9730 ft | 291 kts | 272° |
| 2026-05-07 12:35 | 36.78182 | 3.84609 | 9599 ft | 291 kts | 272° |
| 2026-05-07 12:35 | 36.78304 | 3.82092 | 9467 ft | 291 kts | 272° |
| 2026-05-07 12:35 | 36.78423 | 3.79607 | 9335 ft | 280 kts | 272° |
| 2026-05-07 12:35 | 36.78537 | 3.77253 | 9125 ft | 265 kts | 271° |
| 2026-05-07 12:36 | 36.78648 | 3.74995 | 8778 ft | 257 kts | 272° |
| 2026-05-07 12:36 | 36.78755 | 3.72794 | 8421 ft | 252 kts | 272° |
| 2026-05-07 12:36 | 36.78860 | 3.70638 | 8063 ft | 247 kts | 272° |
| 2026-05-07 12:36 | 36.78963 | 3.68520 | 7714 ft | 244 kts | 271° |
| 2026-05-07 12:37 | 36.79063 | 3.66408 | 7365 ft | 244 kts | 271° |
| 2026-05-07 12:37 | 36.79162 | 3.64289 | 7009 ft | 246 kts | 272° |
| 2026-05-07 12:37 | 36.79263 | 3.62162 | 6651 ft | 244 kts | 272° |
| 2026-05-07 12:37 | 36.79364 | 3.60062 | 6307 ft | 241 kts | 272° |
| 2026-05-07 12:38 | 36.79463 | 3.57986 | 5950 ft | 238 kts | 272° |
| 2026-05-07 12:38 | 36.79558 | 3.55941 | 5609 ft | 234 kts | 272° |
| 2026-05-07 12:38 | 36.79638 | 3.53932 | 5270 ft | 230 kts | 272° |
| 2026-05-07 12:38 | 36.79710 | 3.51957 | 4941 ft | 225 kts | 271° |
| 2026-05-07 12:39 | 36.79779 | 3.50026 | 4620 ft | 221 kts | 271° |
| 2026-05-07 12:39 | 36.79847 | 3.48131 | 4293 ft | 217 kts | 271° |
| 2026-05-07 12:39 | 36.79913 | 3.46273 | 3983 ft | 212 kts | 271° |
| 2026-05-07 12:39 | 36.79980 | 3.44456 | 3682 ft | 207 kts | 271° |
| 2026-05-07 12:40 | 36.80049 | 3.42677 | 3390 ft | 203 kts | 272° |
| 2026-05-07 12:40 | 36.80103 | 3.40932 | 3098 ft | 198 kts | 266° |
| 2026-05-07 12:40 | 36.79798 | 3.39309 | 2882 ft | 189 kts | 245° |
| 2026-05-07 12:40 | 36.79093 | 3.37981 | 2671 ft | 176 kts | 233° |
| 2026-05-07 12:41 | 36.78390 | 3.36822 | 2445 ft | 160 kts | 234° |
| 2026-05-07 12:41 | 36.77756 | 3.35777 | 2232 ft | 147 kts | 234° |
| 2026-05-07 12:41 | 36.77162 | 3.34798 | 2051 ft | 136 kts | 235° |
| 2026-05-07 12:41 | 36.76597 | 3.33867 | 1883 ft | 135 kts | 235° |
| 2026-05-07 12:42 | 36.76028 | 3.32930 | 1710 ft | 136 kts | 234° |
| 2026-05-07 12:42 | 36.75458 | 3.31993 | 1519 ft | 137 kts | 235° |
| 2026-05-07 12:42 | 36.74887 | 3.31054 | 1342 ft | 136 kts | 234° |
| 2026-05-07 12:42 | 36.74319 | 3.30119 | 1163 ft | 136 kts | 235° |
| 2026-05-07 12:43 | 36.73750 | 3.29184 | 969 ft | 135 kts | 234° |
| 2026-05-07 12:43 | 36.73188 | 3.28261 | 774 ft | 132 kts | 233° |
| 2026-05-07 12:43 | 36.72639 | 3.27360 | 594 ft | 130 kts | 231° |
| 2026-05-07 12:43 | 36.72096 | 3.26468 | 415 ft | 129 kts | 233° |
| 2026-05-07 12:44 | 36.71557 | 3.25583 | 231 ft | 128 kts | 232° |
| 2026-05-07 12:44 | 36.71020 | 3.24703 | 89 ft | 124 kts | 232° |
| 2026-05-07 12:44 | 36.70602 | 3.24019 | 88 ft | 77 kts | 232° |
| 2026-05-07 12:44 | 36.70299 | 3.23557 | 83 ft | 63 kts | 233° |
| 2026-05-07 12:45 | 36.70139 | 3.23118 | 85 ft | 51 kts | 264° |
| 2026-05-07 12:45 | 36.70092 | 3.22704 | 81 ft | 45 kts | 263° |
| 2026-05-07 12:45 | 36.69955 | 3.22395 | 82 ft | 39 kts | 233° |
| 2026-05-07 12:45 | 36.69799 | 3.22139 | 83 ft | 35 kts | 234° |
| 2026-05-07 12:46 | 36.69655 | 3.21906 | 78 ft | 33 kts | 233° |
| 2026-05-07 12:46 | 36.69597 | 3.21734 | 71 ft | 15 kts | 307° |
| 2026-05-07 12:46 | 36.69675 | 3.21646 | 78 ft | 14 kts | 268° |
| 2026-05-07 12:46 | 36.69665 | 3.21586 | 72 ft | 0 kts | 255° |